15th European Championshionship

2018-07-16 to 2018-07-28, FAI Category 1 event

Task 3 - Overall

2018-07-22 Task 3

Race to Goal 76.8 km

Provisional

No Leg Dist. Id Radius Open Close Coordinates Altitude
1 0.0 km T01 1 m 14:45 16:30 Lat: 41.88038 Lon: -7.72032 1509 m
2 SS 2.6 km W25 11000 m 15:35 18:35 Lat: 41.77771 Lon: -7.65761 930 m
3 13.7 km W24 17000 m 15:35 18:35 Lat: 42.05958 Lon: -7.46108 480 m
4 25.4 km W10 2000 m 15:35 18:35 Lat: 41.85037 Lon: -7.70353 956 m
5 40.1 km W20 12000 m 15:35 18:35 Lat: 41.94713 Lon: -7.44951 546 m
6 ES 75.0 km G12 2000 m 15:35 18:35 Lat: 42.30575 Lon: -7.62473 617 m
7 76.8 km G12 200 m 15:35 18:35 Lat: 42.30575 Lon: -7.62473 617 m
StartGate(s): 15:35

# Id Name Nat Glider Sponsor SS ES Time km/h Distance Dist.
Points
Lead.
Points
Time
Points
Total
1 771 Dusan Oroz M SLO Ozone Enzo 3 High Adventure, Naviter, X-Dreamfly 15:35:00 17:56:08 02:21:08 30.8 76.81 412.5 198.9 316.4 928
2 291 Marco Busetta M ITA Ozone Enzo 3 Bullet speedbar, ilpistacchio.it, AeCI 15:35:00 17:56:02 02:21:02 30.8 76.81 412.5 196.0 317.1 926
3 1295 Philipp Haag M GER Gin Boomerang 11 B.A.H Gruppe/ Maier Sports GmbH 15:35:00 17:56:11 02:21:11 30.8 76.81 412.5 195.1 316.1 924
4 393 Theo Warden M GBR Ozone Enzo 3 Airways airsports,Cross Country Mag,Aerofix 15:35:00 17:55:55 02:20:55 30.9 76.81 412.5 191.4 317.9 922
5 1500 Ferdinand Vogel M GER Ozone Enzo 3 15:35:00 17:56:23 02:21:23 30.7 76.81 412.5 191.6 314.7 919
6 22 Biagio Alberto Vitale M ITA Ozone Ozone EnZo 3 AeCI,AIRE Cornizzolo,Casarini,DMD,Corbelli Elettronica,Infopro 15:35:00 17:57:19 02:22:19 30.5 76.81 412.5 192.8 308.5 914
7 575 Michael Maurer M SUI GinGliders Boomerang11 GinGliders/ LaSportiva / cloud-7.ch / ONEDAY 15:35:00 17:58:27 02:23:27 30.3 76.81 412.5 199.1 301.4 913
8 45 Adrian Hachen M SUI Gin Gliders Boomerang 11 GIN Gliders 15:35:00 17:57:36 02:22:36 30.5 76.81 412.5 191.4 306.7 911
9 13 Torsten Siegel M GER GIN GLIDERS Boomerang 11 GIN GLIDERS, pets Premium, Naviter 15:35:00 17:58:22 02:23:22 30.3 76.81 412.5 195.2 301.9 910
10 273 Zeljko Ovuka M SRB Ozone Enzo 3 VS Srbije, Ares Beograd 15:35:00 17:56:49 02:21:49 30.7 76.81 412.5 181.8 311.8 906
11 20 Ronny Helgesen M NOR Ozone Enzo 3 Termikk&Rotor A/S 15:35:00 17:59:36 02:24:36 30.1 76.81 412.5 196.8 294.4 904
11 300 Christoph Eder M AUT Ozone Enzo 3 DFC-Wildkogelfalken/Eder Guido Installationen 15:35:00 18:00:16 02:25:16 29.9 76.81 412.5 200.9 290.5 904
13 44 David Ohlidal M CZE Gin boom LAA ČR,Axis 15:35:00 17:58:39 02:23:39 30.3 76.81 412.5 190.1 300.2 903
14 998 Jacek Gorski M POL Ozone Zeno Alti-paralotnie 15:35:00 17:58:35 02:23:35 30.3 76.81 412.5 188.4 300.6 902
15 515 Tilen Ceglar M SLO Ozone Enzo 3 NAVITER | High Adventure CH | Factorystore.si 15:35:00 17:56:22 02:21:22 30.8 76.81 412.5 172.5 314.8 900
16 84 Clement Latour M FRA Ozone ENZO3 FFVL SUPAIR 15:35:00 18:00:34 02:25:34 29.9 76.81 412.5 195.8 288.8 897
17 3 Joachim Oberhauser M ITA Ozone Enzo 3 Airecornizzolo-Superfly360-elektroww-Ruedlohg-Xdreamfly-publicolor 15:35:00 18:03:37 02:28:37 29.3 76.81 412.5 200.5 272.1 885
18 114 Daniel Tyrkas M GER Ozone Enzo 3 DHV 15:35:00 18:02:53 02:27:53 29.4 76.81 412.5 195.1 276.0 884
18 541 Michal Gierlach M POL Ozone Enzo 3 XC Spike, SPBW, Airvuisa 15:35:00 18:02:54 02:27:54 29.4 76.81 412.5 195.6 275.9 884
20 316 Marco Littame M ITA Ozone Enzo 2 luca/lisa 15:35:00 18:05:05 02:30:05 29.0 76.81 412.5 205.6 264.4 883
20 708 Klaudia Bulgakow F POL Ozone EnZo 3 S Lukoil 15:35:00 17:57:00 02:22:00 30.6 76.81 412.5 160.0 310.6 883
22 249 Emil Cervenan M SVK Ozone Enzo 3 LAA SR | AXIS PARAGLIDING 15:35:00 18:03:24 02:28:24 29.3 76.81 412.5 194.1 273.2 880
23 1117 Silvia Buzzi Ferraris F ITA Ozone Enzo 3 Pandol-Fly ; VerticalAttitude ; AeCI 15:35:00 18:01:29 02:26:29 29.7 76.81 412.5 182.7 283.6 879
23 83 Idris Birch M GBR Gin Boom 11 Gin Gliders 15:35:00 18:03:20 02:28:20 29.3 76.81 412.5 193.3 273.6 879
25 62 Petra Slivova F CZE Gin Boomerang 11 GIN GLIDERS, LAA CR 15:35:00 18:02:15 02:27:15 29.5 76.81 412.5 184.4 279.4 876
26 1114 Rolf Dale M NOR Ozone Enzo 3 15:35:00 18:04:21 02:29:21 29.1 76.81 412.5 194.2 268.2 875
27 6 Yvonne Dathe F GER UP Meru WinMental.de, FlyTeam 15:35:00 17:59:51 02:24:51 30.0 76.81 412.5 167.7 293.0 873
27 500 Jost Napret M SLO Ozone Enzo 3 NAVITER I High Adventure Switzerland 15:35:00 17:55:51 02:20:51 30.9 76.81 412.5 141.7 318.4 873
29 17 Ulrich Prinz M GER Ozone Enzo 3 Ozone 15:35:00 18:04:33 02:29:33 29.1 76.81 412.5 192.2 267.2 872
29 453 Alexander Schalber M AUT Ozone Enzo 3 Flugschule Salzburg / Naviter 15:35:00 18:04:17 02:29:17 29.1 76.81 412.5 191.3 268.6 872
31 63 Francisco Javier Reina M ESP Ozone Enzo 3 Ozone.alamair 15:35:00 18:04:38 02:29:38 29.1 76.81 412.5 191.8 266.8 871
32 26 Julian Robinson M GBR Gin Boomerang 11 UK Airsports 15:35:00 18:04:32 02:29:32 29.1 76.81 412.5 189.1 267.3 869
33 54 Jose Rebelo M POR Ozone Enzo 3 FPVL, Bstoked, CP Linhares da Beira 15:35:00 18:05:51 02:30:51 28.8 76.81 412.5 194.1 260.6 867
34 281 Gleb Sukhotskiy M RUS Ozone Enzo3 www.crimea-paragliding.com 15:35:00 18:05:47 02:30:47 28.8 76.81 412.5 193.0 260.9 866
34 10 Meryl Delferriere F FRA Ozone Enzo 3 Ressources parapente/xctracer/adrenagliss 15:35:00 18:05:10 02:30:10 28.9 76.81 412.5 189.2 264.0 866
36 1 Michael Sigel M SUI GIN Boomerang 11 Gin Gliders, JACK&JONES, Naviter 15:35:00 18:05:36 02:30:36 28.9 76.81 412.5 190.8 261.8 865
36 205 Ari Sahlstrom M FIN Gin Boomerang 11 Vauhtifarmi Oy 15:35:00 18:05:19 02:30:19 28.9 76.81 412.5 189.6 263.3 865
38 42 Yael Margelisch F SUI Ozone Enzo 3 GDentanBySutech, Naviter, ONEDAY, Alp'sports thérapies 15:35:00 18:05:27 02:30:27 28.9 76.81 412.5 188.6 262.6 864
38 11 Xevi Bonet Dalmau M ESP Ozone Enzo 3 Ozone/Alamair/Naviter/Alfapilot 15:35:00 18:05:42 02:30:42 28.8 76.81 412.5 190.3 261.3 864
40 1212 Jesus Costa Sanchez M ESP Gin Boomerang 11 Kasana Gin - parapentedesnivel.com -Maditarranean paraglidin.com 15:35:00 18:05:38 02:30:38 28.9 76.81 412.5 189.0 261.7 863
40 282 Bojan Gabersek M SLO Ozone Enzo 3 AVTODELI GABERSEK, IBUS, ASKELA, COMPANI 15:35:00 18:05:46 02:30:46 28.8 76.81 412.5 189.6 261.0 863
42 512 Vitalii Umanskyi M UKR Ozone Enzo 3 15:35:00 18:04:51 02:29:51 29.0 76.81 412.5 182.4 265.6 861
43 218 Jurij Vidic M SLO Ozone Enzo 3 Agring doo, Naviter, High Adventure Switzerland, Slovenian Paragliding Team, Air Vuisa 15:35:00 18:07:42 02:32:42 28.5 76.81 412.5 196.0 251.4 860
44 33 Balan Antoniu Cristian M ROU Ozone Zeno www.AirSports.ro 15:35:00 17:56:24 02:21:24 30.7 76.81 412.5 131.2 314.6 858
45 40 Pavel Iker M CZE Gin Boomerang 11 ZICO a.s.; LAA ČR; GIN ČR 15:35:00 18:05:17 02:30:17 28.9 76.81 412.5 180.6 263.4 857
46 69 Stanislav Mayer M CZE Gin Boomerang 11 GIN, Kernun, Certicon, SvazPG, HighPoint, Victorinox 15:35:00 18:07:19 02:32:19 28.5 76.81 412.5 189.2 253.3 855
46 111 Seiko Fukuoka Naville F FRA Ozone Enzo 4 Addactis, Ozone,Airlinks, La sambuy, Certika,Compass,Oneday,Nana 15:35:00 18:07:38 02:32:38 28.5 76.81 412.5 190.3 251.8 855
46 198 Yury Mishanin M RUS Ozone Enzo 3 Федерация спорта СЛА Рязанской области 15:35:00 18:06:20 02:31:20 28.7 76.81 412.5 183.9 258.1 855
49 14 Christian Biasi M ITA OZONE Enzo 3 TRENTINO - MONTURA - AIRE TEAM - AECI 15:35:00 18:08:26 02:33:26 28.3 76.81 412.5 190.3 247.9 851
50 314 Kristian Andersson M NOR Ozone Zeno JK 15:35:00 18:08:50 02:33:50 28.3 76.81 412.5 188.4 246.0 847
51 211 Stefan Vyparina M SVK Ozone Enzo 3 Gaži statika, Perfectfly, SPORTRYSY, LAA SR 15:35:00 18:03:54 02:28:54 29.2 76.81 412.5 163.1 270.6 846
52 47 Artem Lozovoy M RUS Ozone Enzo 3 Спортивная федерация спорта СЛА Ленинградской области 15:35:00 18:09:10 02:34:10 28.2 76.81 412.5 183.5 244.4 840
53 35 Tomas Podmanik M SVK Ozone Zeno obec Veľké Kršteňany, LAA SR, REVIS 15:35:00 18:01:03 02:26:03 29.8 76.81 412.5 140.2 286.1 839
54 311 Peter Vyparina M SVK Ozone Enzo GAZI statika, SPORTRYSY, Perfectfly, 15:35:00 18:00:54 02:25:54 29.8 76.81 412.5 138.9 286.9 838
54 542 Stanislav Vojtek M SVK Ozone Zeno Funcars,belmar,čau sa bau 15:35:00 18:00:35 02:25:35 29.9 76.81 412.5 136.3 288.7 838
56 1771 Nils-Aake Carlsson M SWE Ozone Enzo 3 FlyItParagliding.com 15:35:00 18:02:19 02:27:19 29.5 76.81 412.5 133.3 279.0 825
56 985 Thomas Brandlehner M AUT Ozone Enzo 3 www.axians.at 15:35:00 18:14:09 02:39:09 27.3 76.81 412.5 190.2 221.8 825
56 333 Predrag Neskovic M SRB Ozone Zeno VS Srbije, Pegaz Ivanjica 15:35:00 18:06:10 02:31:10 28.8 76.81 412.5 153.6 259.0 825
59 377 Elisabeth Egger F AUT Ozone Zeno S Egger BEST-Box BetriebsgmbH 15:35:00 18:09:17 02:34:17 28.2 76.81 412.5 166.9 243.9 823
59 3137 Alexey Bystritskiy M RUS Ozone Enzo 3 asa-fly.ru 15:35:00 18:04:56 02:29:56 29.0 76.81 412.5 144.8 265.2 823
61 244 Thibault Voglet M BEL Ozone Enzo 2 Fou d´l, Profondeville, Les 7 Meuses 15:35:00 18:13:12 02:38:12 27.5 76.81 412.5 182.9 226.0 821
62 77 Jan Jares M CZE Up Meru/XR7 eHAMnet UP-czech, Flyskin, LAAcr 15:35:00 18:12:13 02:37:13 27.7 76.81 412.5 174.8 230.4 818
63 123 Daria Krasnova F RUS Up Meru UP Paragliders 15:35:00 18:14:07 02:39:07 27.3 76.81 412.5 182.1 222.0 817
64 266 Peter Budai M HUN Ozone Zeno 15:35:00 18:04:30 02:29:30 29.1 76.81 412.5 133.6 267.4 814
65 24 Damir Habek M CRO Niviuk Icepeak 8 15:35:00 18:11:07 02:36:07 27.8 76.81 412.5 164.7 235.4 813
65 121 Gyula Fichtinger M HUN Ozone Zeno Ozone Hungary 15:35:00 18:07:44 02:32:44 28.5 76.81 412.5 148.9 251.3 813
67 1171 Hakan Lindqvist M SWE Ozone Zeno skysport.se 15:35:00 18:05:10 02:30:10 28.9 76.81 412.5 135.5 264.0 812
68 181 Sami Pitkakoski M FIN Ozone Zeno 15:35:00 18:07:23 02:32:23 28.5 76.81 412.5 145.0 253.0 811
69 717 Jan Richard Hansen M NOR Ozone Enzo 3 Epizoom Multimedia Design 15:35:00 18:12:00 02:37:00 27.7 76.81 412.5 164.2 231.4 808
70 173 Birkan Paçali M TUR Ozone Zeno THK 15:35:00 18:07:19 02:32:19 28.5 76.81 412.5 138.1 253.3 804
71 251 Martin Long M GBR Ozone Zeno www.flysussex.com 15:35:00 18:07:04 02:32:04 28.6 76.81 412.5 134.3 254.5 801
72 156 Luis Linde M ESP Ozone Enzo 2 Niviuk - Skywalk España - Draco - ALS Sport 15:35:00 18:10:51 02:35:51 27.9 76.81 412.5 150.1 236.6 799
73 68 Petr Kostrhun M CZE Gin Boomerang 11 Atlantis-limousine-service.cz 15:35:00 18:20:12 02:45:12 26.3 76.81 412.5 187.1 196.3 796
74 46 Kalle Ojamo M FIN Ozone Zeno Greenled.fi 15:35:00 18:08:37 02:33:37 28.3 76.81 412.5 134.0 247.0 794
75 236 Andrey Eliseev M RUS Ozone Enzo 3 no 15:35:00 18:09:38 02:34:38 28.1 76.81 412.5 128.2 242.2 783
76 50 Pierre Remy M FRA Ozone Enzo3 Cg hautes Pyrénées, midi pyrénées, VLB 15:35:00 18:11:54 02:36:54 27.7 76.81 412.5 132.6 231.8 777
77 174 Aleksandar Santrac M BIH Ozone Enzo 3 15:35:00 18:21:37 02:46:37 26.1 76.81 412.5 166.9 190.6 770
78 222 Federico Nevastro M ITA Gin Boomerang 11 AeCi-Paradelta Club Feltre 15:35:00 18:27:43 02:52:43 25.2 76.81 412.5 182.4 166.9 762
79 212 Etienne Coupez M LUX Ozone Enzo 3 15:35:00 18:22:34 02:47:34 25.9 76.81 412.5 79.9 186.9 679
80 5 Charles Cazaux M FRA Ozone Enzo 3 Airlinks Academy l Morzine l Ozone l Naviter l ONE Day 15:35:00 17:50:35 02:15:35 32.1 75.99 408.1 201.4 610
81 16 Primoz Susa M SLO Ozone Enzo 2 camp-gabrje.com, naviter.com, High Adventure Switzerland 15:35:00 17:49:45 02:14:45 32.3 75.18 403.7 200.2 604
82 98 Simon Arnold M AUT Ozone Enzo 3 flywear 15:35:00 72.62 390.0 196.7 587
83 51 Sergi Claret Estupinya M ESP Boomerang 11 Kasana, Gin Gliders 15:35:00 69.92 375.5 191.7 567
84 41 Eusebio Soares M POR Ozone Enzo 3 Soares & Soares 15:35:00 70.53 378.7 184.3 563
85 713 Antonio Tabanez Fonseca M POR Ozone Enzo 3 FPVL; AGROL S.A; C.M. Lousã 15:35:00 70.20 377.0 184.5 562
86 404 Antun Lovrec M CRO Ozone Zeno 15:35:00 18:04:39 02:29:39 29.0 75.84 407.3 152.4 560
87 71 Francis De Bruyn M BEL Ozone Enzo 3 15:35:00 70.51 378.6 179.8 558
88 317 Srdjan Kesic M SRB Ozone Zeno VS Srbije, AK Novi Sad 15:35:00 70.25 377.3 179.6 557
88 25 Jaroslav Janduch M SVK Ozone Enzo 2 Laa.sk Premat,s.r.o. 15:35:00 17:54:36 02:19:36 31.1 75.56 405.8 151.5 557
90 269 Vladimir Bacanin M SRB Flow XCracer VS Srbije, Air 037 Krusevac 15:35:00 67.46 362.2 187.5 550
91 338 Stephan Morgenthaler M SUI Ozone Enzo 3 15:35:00 68.68 368.8 179.8 549
92 161 Christian Amon M AUT Ozone Enzo 3 Mac Para-Kortell 15:35:00 67.93 364.8 183.3 548
92 504 Tadej Krevh M SLO Ozone Enzo3 Naviter.com, High Adventure 15:35:00 17:50:03 02:15:03 32.2 75.12 403.4 144.4 548
92 8 Ernesto Hinestroza M GER Ozone Enzo3 DGFW, DHV, Kontest, talkyoo 15:35:00 67.50 362.5 185.8 548
95 384 Andrew Williams M GBR Ozone Zeno ESCAPE XC 15:35:00 68.66 368.7 177.0 546
96 621 Nuno Virgilio M POR Flow XC Racer Flymaster / paragliding.BSTOKED.net / ActionCoin / Flow paragliders 15:35:00 67.14 360.6 183.7 544
97 31 Carlos Lopes M POR Ozone Zeno www.mineiro.com.pt 15:35:00 68.05 365.5 176.6 542
98 676 Dominik Breitinger M SUI Gin Boomerang 11 GIN-Gliders 15:35:00 66.94 359.5 180.0 540
99 1717 Umut Akturk M TUR Ozone Enzo 3 Turkish Aeronautical Association 15:35:00 66.99 359.8 177.8 538
100 224 Malin Lobb M GBR Ozone Enzo 3 FLYEO 15:35:00 68.67 368.7 168.3 537
101 707 Remko Bolt M NED Ozone Zeno http://www.winchline.nl/ 15:35:00 67.66 363.3 160.8 524
102 997 Pawel Faron M POL Ozone Zeno Fadróg,Connect,Red Bull,Konstrukcje Żywiec, Salewa, flylite.pl 15:35:00 72.65 390.1 130.6 521
103 102 Michele Boschi M ITA Ozone EnZo 3 Digifly - AireCornizzolo- AeCI 15:35:00 63.57 341.4 174.8 516
104 1987 Krzysztof Schmidt M POL Ozone Zeno QNT Systemy Informatyczne 15:35:00 63.22 339.5 174.6 514
105 375 Srdjan Ristanovic M SRB Ozone Enzo 3 VS Srbije, Xperience360 15:35:00 67.25 361.2 150.5 512
106 4 Honorin Hamard M FRA Ozone Enzo 3 Altitude Eyewear - Naviter - CG50 - Club des Archanges - Ozone - Ligue Normandie - Icaro - Soartd 15:35:00 62.24 334.2 175.8 510
107 1405 Mariusz Wisniowski M POL Ozone Enzo 3 15:35:00 62.85 337.5 170.0 508
108 1119 Mari-Anne Aanes F NOR Ozone Zeno 15:35:00 63.05 338.6 168.7 507
108 103 Peter Nägele M GER Ozone Enzo 3 DHV, DCH, yellow cross 15:35:00 63.09 338.8 167.8 507
110 28 Marek Janosik M SVK UP Meru UP Slovakia 15:35:00 67.94 364.8 141.1 506
111 1177 Antoni Buljan M CRO Ozone Zeno Absolute adventure 15:35:00 65.46 351.5 151.2 503
112 340 Nanda Walliser F SUI Up Meru UP Paragliders & High-Adventure 15:35:00 62.95 338.0 160.9 499
113 1611 Ricardo Rodrigues M POR Ozone Zeno paragliding.BSTOKED.net; Azores Airlines; BGD 15:35:00 62.94 338.0 159.6 498
114 7 Luc Armant M FRA Ozone Enzo 3 ozone 15:35:00 68.13 365.9 131.1 497
115 34 Andreas Malecki M GER Ozone Enzo 3 MWZ 24, Flugschule Chiemsee, DHV, 15:35:00 63.88 343.0 149.9 493
116 741 Stepan Kechedzhi M UKR Ozone Enzo 3 15:35:00 68.06 365.5 126.4 492
116 262 Ewa Korneluk-Guzy F GER Ozone Zeno paraclinic.at, Sziols 15:35:00 68.82 369.6 121.9 492
118 66 Jessica Cox F GBR Ozone Zeno Fly Sussex Paragliding 15:35:00 66.84 358.9 130.0 489
119 906 Aleksei Korobkov M RUS Ozone Enzo 3 Теплый Дом 15:35:00 60.99 327.5 159.7 487
119 19 Kimmo Korhonen M FIN Gin Boomerang 11 Redheat Oy, Levytyö Särkinen Oy 15:35:00 67.99 365.1 121.5 487
121 12 Julien Wirtz M FRA Ozone Enzo 3 Ozone, Certika 15:35:00 64.88 348.4 120.5 469
121 119 Stanislav Klikar M CZE Ozone Enzo 2 Axispara.cz, LaaCR, pgkb.cz 15:35:00 58.25 312.8 155.8 469
121 56 FELIX Rodriguez Fernández M ESP Ozone Enzo 3 OZONE-NACEX-CERTIKA-AIR SPORTS CHAMONIX-JULBO 15:35:00 58.30 313.1 155.7 469
124 353 Aron Michiels M BEL Ozone Enzo 3 FreeToFly 15:35:00 63.23 339.6 128.2 468
125 1000 Bogdan Bialka M IRL Ozone Enzo 3 SkyMaster 15:35:00 60.73 326.1 139.7 466
125 234 Juho Komulainen M FIN Ozone Enzo 3 Flymigu 15:35:00 62.98 338.2 128.2 466
125 815 Katalin Juhasz F HUN Ozone Zeno fAirPlay, lortech, ASE 15:35:00 68.74 369.1 96.9 466
128 191 Mirvad Zenuni M BIH Ozone Zeno Muscle Freak 15:35:00 59.00 316.8 147.6 464
129 32 Evgeny Kalashnik M UKR Gin Boom 11 Kalashnik 15:35:00 70.66 379.4 80.2 460
130 201 Johanna Hamne F SWE Ozone Zeno Odd Molly 15:35:00 64.45 346.1 112.3 458
131 401 Rasa Grigoraitiene F LTU Ozone Zeno 15:35:00 62.59 336.1 118.5 455
132 235 John Herman Sorheim M NOR Ozone Enzo 3 Kystdesign 15:35:00 68.88 369.9 83.6 454
132 27 Zoran Boskovic M CRO Niviuk Icepeak 6 Moa 15:35:00 68.81 369.5 84.2 454
134 399 Dominika Kasieczko F POL Ozone Zeno Ozone Polska, GRAVITACJA 15:35:00 60.61 325.5 126.4 452
134 871 Paulo Silva M POR Gin Boomerang 11 Azores Airlines 15:35:00 56.95 305.8 146.0 452
136 539 Antanas Jakucevicius M LTU Ozone Zeno Nemanta 15:35:00 70.22 377.1 73.3 450
137 248 Volodymyr Perevalov M UKR Ozone Enzo3 NearBirds 15:35:00 68.78 369.3 80.1 449
137 117 Pierre Therer M BEL Ozone Enzo 2 AirDeck 15:35:00 63.23 339.6 109.7 449
139 2 Tudor Dorobantu M ROU Niviuk Klimber P Tellur 15:35:00 67.53 362.6 81.8 444
140 15 Daniel Pop M ROU BGD Diva BGD 15:35:00 62.17 333.8 67.8 402
141 48 Tor Jansson M SWE Ozone Zeno velodrom.se skysport.se 15:35:00 61.69 331.3 66.2 398
142 81 Florin Iftinca M ROU Swing Nexus 15:35:00 62.41 335.2 59.3 395
143 313 Quentin Debras M BEL BGD Diva Tilman SA - BGD - LaRoch'Ailes - Willame Motors - Kia Belux Atom 15:35:00 60.61 325.5 64.6 390
144 29 Romana Schubertova F SVK UP Trango XC3 UP Slovakia 15:35:00 59.08 317.2 59.5 377
145 9 Razvan Nitoiu M ROU Ozone Delta 3 retrofit.ro 15:35:00 60.83 326.6 11.5 338
146 1011 Lara Leban F SLO NOVA Sector Naviter, Adrenalin paragliding team, Triple seven 15:35:00 55.48 297.9 6.7 305
147 49 Silvia de Oliveira Ventura F POR NOVA Triton 2 Light XS NOVA, WIND 15:35:00 53.38 286.6 12.3 299
148 21 Dana Kelemen F ROU Ozone Alpina 2 15:35:00 29.54 158.6 159
149 261 Konstiantyn Matusevych M UKR Ozone Zeno "Antonov" company, Nearbirds 15:35:00 27.06 145.3 145
150 78 Eemeli Aittokallio M FIN Ozone Zeno 15:35:00 21.65 116.3 116

Pilots absent from task (ABS)

Id Name

Pilots not yet processed (NYP)

Id Name

Task statistics

param value
ss_distance 72.455
task_distance 76.814
launch_to_ess_distance 75.014
no_of_pilots_present 150
no_of_pilots_flying 150
no_of_pilots_lo 71
no_of_pilots_reaching_nom_dist 140
no_of_pilots_reaching_es 84
no_of_pilots_reaching_goal 79
sum_flown_distance 10630.401
best_dist 76.814
best_time 2.24583333333333
worst_time 2.87861111111111
no_of_pilots_in_competition 150
no_of_pilots_landed_before_stop 0
sum_dist_over_min 9880.40099999999
sum_real_dist_over_min 9880.40099999999
sum_flown_distances 10630.401
best_real_dist 76.814
last_start_time 2018-07-22T15:35:00+01:00
first_start_time 2018-07-22T15:35:00+01:00
first_finish_time 2018-07-22T17:49:45+01:00
max_time_to_get_time_points 3.74444380084427
no_of_pilots_with_time_points 79
goalratio 0.526666666666667
arrival_weight 0
departure_weight 0
leading_weight 0.205626445940741
time_weight 0.381877685318518
distance_weight 0.412495868740741
smallest_leading_coefficient 1.21387596964208
available_points_distance 412.495868740741
available_points_time 381.877685318518
available_points_departure 0
available_points_leading 205.626445940741
available_points_arrival 0
time_validity 1
launch_validity 1
distance_validity 1
stop_validity 1
day_quality 1
ftv_day_validity 1
time_points_stop_correction 0

Scoring formula settings

param value
id GAP2018
min_dist 5
nom_dist 60
nom_time 1.5
nom_launch 0.96
nom_goal 0.3
day_quality_override 0
bonus_gr 4
jump_the_gun_factor 0
jump_the_gun_max 0
normalize_1000_before_day_quality 0
time_points_if_not_in_goal 0
use_1000_points_for_max_day_quality 0
use_arrival_position_points 0
use_arrival_time_points 0
use_departure_points 0
use_difficulty_for_distance_points 0
use_distance_points 1
use_distance_squared_for_LC 1
use_leading_points 1
use_semi_circle_control_zone_for_goal_line 1
use_time_points 1
scoring_altitude QNH
final_glide_decelerator none
no_final_glide_decelerator_reason
min_time_span_for_valid_task 60
score_back_time 5
use_proportional_leading_weight_if_nobody_in_goal 1
leading_weight_factor 2
turnpoint_radius_tolerance 0.002
Report created: 2018-07-23T00:05:19+01:00

FS development, maintenance and support by